sensor_id;sensor_type;location;lat;lon;timestamp;P1;durP1;ratioP1;P2;durP2;ratioP2
15402;SDS011;7799;53.478;10.170;2023-05-19T00:00:18;0.30;;;0.30;;
15402;SDS011;7799;53.478;10.170;2023-05-19T00:02:45;0.63;;;0.50;;
15402;SDS011;7799;53.478;10.170;2023-05-19T00:05:13;0.43;;;0.43;;
15402;SDS011;7799;53.478;10.170;2023-05-19T00:07:43;0.40;;;0.40;;
15402;SDS011;7799;53.478;10.170;2023-05-19T00:10:11;0.67;;;0.57;;
15402;SDS011;7799;53.478;10.170;2023-05-19T00:12:39;0.70;;;0.60;;
15402;SDS011;7799;53.478;10.170;2023-05-19T00:15:06;0.40;;;0.40;;
15402;SDS011;7799;53.478;10.170;2023-05-19T00:17:34;0.30;;;0.30;;
15402;SDS011;7799;53.478;10.170;2023-05-19T00:20:02;0.70;;;0.50;;
15402;SDS011;7799;53.478;10.170;2023-05-19T00:22:32;0.50;;;0.50;;
15402;SDS011;7799;53.478;10.170;2023-05-19T00:25:00;0.40;;;0.40;;
15402;SDS011;7799;53.478;10.170;2023-05-19T00:27:26;0.40;;;0.40;;
15402;SDS011;7799;53.478;10.170;2023-05-19T00:29:53;0.50;;;0.50;;
15402;SDS011;7799;53.478;10.170;2023-05-19T00:32:20;0.40;;;0.40;;
15402;SDS011;7799;53.478;10.170;2023-05-19T00:34:46;0.60;;;0.40;;
15402;SDS011;7799;53.478;10.170;2023-05-19T00:37:13;0.40;;;0.40;;
15402;SDS011;7799;53.478;10.170;2023-05-19T00:39:40;0.50;;;0.50;;
15402;SDS011;7799;53.478;10.170;2023-05-19T00:42:08;0.40;;;0.30;;
15402;SDS011;7799;53.478;10.170;2023-05-19T00:44:35;0.30;;;0.30;;
15402;SDS011;7799;53.478;10.170;2023-05-19T00:47:03;0.53;;;0.47;;
15402;SDS011;7799;53.478;10.170;2023-05-19T00:49:30;0.33;;;0.33;;
15402;SDS011;7799;53.478;10.170;2023-05-19T00:51:56;0.40;;;0.40;;
15402;SDS011;7799;53.478;10.170;2023-05-19T00:54:24;0.30;;;0.30;;
15402;SDS011;7799;53.478;10.170;2023-05-19T00:56:50;0.43;;;0.43;;
15402;SDS011;7799;53.478;10.170;2023-05-19T00:59:18;0.60;;;0.60;;
15402;SDS011;7799;53.478;10.170;2023-05-19T01:01:45;0.93;;;0.40;;
15402;SDS011;7799;53.478;10.170;2023-05-19T01:04:13;0.40;;;0.40;;
15402;SDS011;7799;53.478;10.170;2023-05-19T01:06:41;0.60;;;0.50;;
15402;SDS011;7799;53.478;10.170;2023-05-19T01:09:08;0.47;;;0.40;;
15402;SDS011;7799;53.478;10.170;2023-05-19T01:11:34;0.40;;;0.40;;
15402;SDS011;7799;53.478;10.170;2023-05-19T01:14:01;0.50;;;0.50;;
15402;SDS011;7799;53.478;10.170;2023-05-19T01:16:29;1.00;;;0.40;;
15402;SDS011;7799;53.478;10.170;2023-05-19T01:19:04;0.40;;;0.40;;
15402;SDS011;7799;53.478;10.170;2023-05-19T01:21:47;0.40;;;0.40;;
15402;SDS011;7799;53.478;10.170;2023-05-19T01:27:42;0.50;;;0.50;;
15402;SDS011;7799;53.478;10.170;2023-05-19T01:30:24;0.53;;;0.40;;
15402;SDS011;7799;53.478;10.170;2023-05-19T01:32:53;0.40;;;0.40;;
15402;SDS011;7799;53.478;10.170;2023-05-19T01:35:22;0.30;;;0.30;;
15402;SDS011;7799;53.478;10.170;2023-05-19T01:37:50;1.33;;;0.60;;
15402;SDS011;7799;53.478;10.170;2023-05-19T01:40:18;0.70;;;0.50;;
15402;SDS011;7799;53.478;10.170;2023-05-19T01:42:45;0.67;;;0.50;;
15402;SDS011;7799;53.478;10.170;2023-05-19T01:45:12;0.40;;;0.37;;
15402;SDS011;7799;53.478;10.170;2023-05-19T01:47:41;0.47;;;0.30;;
15402;SDS011;7799;53.478;10.170;2023-05-19T01:50:09;0.60;;;0.60;;
15402;SDS011;7799;53.478;10.170;2023-05-19T01:52:36;0.90;;;0.60;;
15402;SDS011;7799;53.478;10.170;2023-05-19T01:55:03;0.50;;;0.40;;
15402;SDS011;7799;53.478;10.170;2023-05-19T01:57:31;0.50;;;0.50;;
15402;SDS011;7799;53.478;10.170;2023-05-19T02:00:02;0.30;;;0.30;;
15402;SDS011;7799;53.478;10.170;2023-05-19T02:02:40;0.40;;;0.40;;
15402;SDS011;7799;53.478;10.170;2023-05-19T02:05:15;0.37;;;0.37;;
15402;SDS011;7799;53.478;10.170;2023-05-19T02:07:47;0.40;;;0.40;;
15402;SDS011;7799;53.478;10.170;2023-05-19T02:10:18;1.03;;;0.60;;
15402;SDS011;7799;53.478;10.170;2023-05-19T02:12:48;0.93;;;0.50;;
15402;SDS011;7799;53.478;10.170;2023-05-19T02:15:19;0.50;;;0.40;;
15402;SDS011;7799;53.478;10.170;2023-05-19T02:17:49;0.40;;;0.40;;
15402;SDS011;7799;53.478;10.170;2023-05-19T02:20:18;0.67;;;0.57;;
15402;SDS011;7799;53.478;10.170;2023-05-19T02:22:46;0.60;;;0.60;;
15402;SDS011;7799;53.478;10.170;2023-05-19T02:25:13;0.40;;;0.40;;
15402;SDS011;7799;53.478;10.170;2023-05-19T02:27:40;0.43;;;0.43;;
15402;SDS011;7799;53.478;10.170;2023-05-19T02:30:07;0.40;;;0.40;;
15402;SDS011;7799;53.478;10.170;2023-05-19T02:32:35;0.50;;;0.50;;
15402;SDS011;7799;53.478;10.170;2023-05-19T02:35:03;0.50;;;0.50;;
15402;SDS011;7799;53.478;10.170;2023-05-19T02:37:31;0.40;;;0.40;;
15402;SDS011;7799;53.478;10.170;2023-05-19T02:39:59;0.30;;;0.30;;
15402;SDS011;7799;53.478;10.170;2023-05-19T02:42:26;0.50;;;0.40;;
15402;SDS011;7799;53.478;10.170;2023-05-19T02:44:53;0.40;;;0.40;;
15402;SDS011;7799;53.478;10.170;2023-05-19T02:47:19;0.60;;;0.40;;
15402;SDS011;7799;53.478;10.170;2023-05-19T02:49:46;0.40;;;0.40;;
15402;SDS011;7799;53.478;10.170;2023-05-19T02:52:15;0.50;;;0.40;;
15402;SDS011;7799;53.478;10.170;2023-05-19T02:54:42;0.50;;;0.50;;
15402;SDS011;7799;53.478;10.170;2023-05-19T02:57:08;0.80;;;0.60;;
15402;SDS011;7799;53.478;10.170;2023-05-19T02:59:35;0.50;;;0.50;;
15402;SDS011;7799;53.478;10.170;2023-05-19T03:02:02;0.50;;;0.50;;
15402;SDS011;7799;53.478;10.170;2023-05-19T03:04:29;0.67;;;0.60;;
15402;SDS011;7799;53.478;10.170;2023-05-19T03:06:56;0.50;;;0.50;;
15402;SDS011;7799;53.478;10.170;2023-05-19T03:09:24;0.40;;;0.40;;
15402;SDS011;7799;53.478;10.170;2023-05-19T03:11:50;0.53;;;0.53;;
15402;SDS011;7799;53.478;10.170;2023-05-19T03:14:17;0.57;;;0.50;;
15402;SDS011;7799;53.478;10.170;2023-05-19T03:16:47;0.43;;;0.40;;
15402;SDS011;7799;53.478;10.170;2023-05-19T03:19:14;0.70;;;0.50;;
15402;SDS011;7799;53.478;10.170;2023-05-19T03:21:42;0.50;;;0.50;;
15402;SDS011;7799;53.478;10.170;2023-05-19T03:24:08;0.40;;;0.40;;
15402;SDS011;7799;53.478;10.170;2023-05-19T03:26:37;0.30;;;0.30;;
15402;SDS011;7799;53.478;10.170;2023-05-19T03:29:04;0.50;;;0.50;;
15402;SDS011;7799;53.478;10.170;2023-05-19T03:31:34;0.70;;;0.70;;
15402;SDS011;7799;53.478;10.170;2023-05-19T03:34:02;0.50;;;0.40;;
15402;SDS011;7799;53.478;10.170;2023-05-19T03:36:28;0.60;;;0.60;;
15402;SDS011;7799;53.478;10.170;2023-05-19T03:38:57;0.70;;;0.60;;
15402;SDS011;7799;53.478;10.170;2023-05-19T03:41:23;0.57;;;0.50;;
15402;SDS011;7799;53.478;10.170;2023-05-19T03:43:52;1.07;;;0.67;;
15402;SDS011;7799;53.478;10.170;2023-05-19T03:46:18;0.60;;;0.60;;
15402;SDS011;7799;53.478;10.170;2023-05-19T03:48:45;0.60;;;0.60;;
15402;SDS011;7799;53.478;10.170;2023-05-19T03:51:14;0.57;;;0.57;;
15402;SDS011;7799;53.478;10.170;2023-05-19T03:53:42;0.60;;;0.60;;
15402;SDS011;7799;53.478;10.170;2023-05-19T03:56:09;0.73;;;0.60;;
15402;SDS011;7799;53.478;10.170;2023-05-19T03:58:37;0.60;;;0.53;;
15402;SDS011;7799;53.478;10.170;2023-05-19T04:01:08;0.70;;;0.70;;
15402;SDS011;7799;53.478;10.170;2023-05-19T04:03:35;0.57;;;0.57;;
15402;SDS011;7799;53.478;10.170;2023-05-19T04:06:02;0.80;;;0.77;;
15402;SDS011;7799;53.478;10.170;2023-05-19T04:08:30;0.67;;;0.67;;
15402;SDS011;7799;53.478;10.170;2023-05-19T04:10:57;1.40;;;0.60;;
15402;SDS011;7799;53.478;10.170;2023-05-19T04:13:23;0.87;;;0.70;;
15402;SDS011;7799;53.478;10.170;2023-05-19T04:15:50;2.10;;;0.80;;
15402;SDS011;7799;53.478;10.170;2023-05-19T04:18:18;0.60;;;0.60;;
15402;SDS011;7799;53.478;10.170;2023-05-19T04:20:45;0.63;;;0.63;;
15402;SDS011;7799;53.478;10.170;2023-05-19T04:23:11;1.57;;;0.80;;
15402;SDS011;7799;53.478;10.170;2023-05-19T04:25:38;0.60;;;0.60;;
15402;SDS011;7799;53.478;10.170;2023-05-19T04:28:06;0.50;;;0.50;;
15402;SDS011;7799;53.478;10.170;2023-05-19T04:30:32;0.60;;;0.57;;
15402;SDS011;7799;53.478;10.170;2023-05-19T04:33:01;0.50;;;0.50;;
15402;SDS011;7799;53.478;10.170;2023-05-19T04:35:30;1.03;;;0.80;;
15402;SDS011;7799;53.478;10.170;2023-05-19T04:37:59;0.60;;;0.60;;
15402;SDS011;7799;53.478;10.170;2023-05-19T04:40:28;0.70;;;0.70;;
15402;SDS011;7799;53.478;10.170;2023-05-19T04:42:55;1.30;;;0.73;;
15402;SDS011;7799;53.478;10.170;2023-05-19T04:45:22;0.50;;;0.50;;
15402;SDS011;7799;53.478;10.170;2023-05-19T04:47:51;1.30;;;0.77;;
15402;SDS011;7799;53.478;10.170;2023-05-19T04:50:22;0.70;;;0.70;;
15402;SDS011;7799;53.478;10.170;2023-05-19T04:52:50;1.57;;;0.80;;
15402;SDS011;7799;53.478;10.170;2023-05-19T04:55:17;0.77;;;0.77;;
15402;SDS011;7799;53.478;10.170;2023-05-19T04:57:43;0.60;;;0.60;;
15402;SDS011;7799;53.478;10.170;2023-05-19T05:00:11;1.40;;;1.30;;
15402;SDS011;7799;53.478;10.170;2023-05-19T05:02:51;0.70;;;0.70;;
15402;SDS011;7799;53.478;10.170;2023-05-19T05:05:19;0.90;;;0.70;;
15402;SDS011;7799;53.478;10.170;2023-05-19T05:07:46;0.90;;;0.63;;
15402;SDS011;7799;53.478;10.170;2023-05-19T05:10:15;0.60;;;0.60;;
15402;SDS011;7799;53.478;10.170;2023-05-19T05:12:42;1.50;;;0.70;;
15402;SDS011;7799;53.478;10.170;2023-05-19T05:15:10;0.60;;;0.53;;
15402;SDS011;7799;53.478;10.170;2023-05-19T05:17:37;0.80;;;0.60;;
15402;SDS011;7799;53.478;10.170;2023-05-19T05:20:05;0.77;;;0.77;;
15402;SDS011;7799;53.478;10.170;2023-05-19T05:22:33;0.93;;;0.83;;
15402;SDS011;7799;53.478;10.170;2023-05-19T05:25:01;1.43;;;0.93;;
15402;SDS011;7799;53.478;10.170;2023-05-19T05:27:30;0.83;;;0.60;;
15402;SDS011;7799;53.478;10.170;2023-05-19T05:29:57;0.50;;;0.50;;
15402;SDS011;7799;53.478;10.170;2023-05-19T05:32:25;0.70;;;0.60;;
15402;SDS011;7799;53.478;10.170;2023-05-19T05:34:52;0.53;;;0.53;;
15402;SDS011;7799;53.478;10.170;2023-05-19T05:37:18;0.83;;;0.83;;
15402;SDS011;7799;53.478;10.170;2023-05-19T05:39:45;0.93;;;0.60;;
15402;SDS011;7799;53.478;10.170;2023-05-19T05:42:12;1.00;;;0.90;;
15402;SDS011;7799;53.478;10.170;2023-05-19T05:44:43;0.80;;;0.80;;
15402;SDS011;7799;53.478;10.170;2023-05-19T05:47:10;1.13;;;0.70;;
15402;SDS011;7799;53.478;10.170;2023-05-19T05:49:38;1.10;;;0.70;;
15402;SDS011;7799;53.478;10.170;2023-05-19T05:52:07;1.97;;;0.90;;
15402;SDS011;7799;53.478;10.170;2023-05-19T05:54:40;0.60;;;0.60;;
15402;SDS011;7799;53.478;10.170;2023-05-19T05:57:08;0.90;;;0.77;;
15402;SDS011;7799;53.478;10.170;2023-05-19T05:59:36;0.70;;;0.70;;
15402;SDS011;7799;53.478;10.170;2023-05-19T06:02:04;0.83;;;0.53;;
15402;SDS011;7799;53.478;10.170;2023-05-19T06:04:32;0.77;;;0.77;;
15402;SDS011;7799;53.478;10.170;2023-05-19T06:06:58;0.83;;;0.80;;
15402;SDS011;7799;53.478;10.170;2023-05-19T06:09:28;1.90;;;0.90;;
15402;SDS011;7799;53.478;10.170;2023-05-19T06:11:56;1.30;;;0.80;;
15402;SDS011;7799;53.478;10.170;2023-05-19T06:14:24;3.13;;;1.17;;
15402;SDS011;7799;53.478;10.170;2023-05-19T06:17:12;1.83;;;1.00;;
15402;SDS011;7799;53.478;10.170;2023-05-19T06:19:39;1.47;;;1.00;;
15402;SDS011;7799;53.478;10.170;2023-05-19T06:22:08;1.23;;;0.80;;
15402;SDS011;7799;53.478;10.170;2023-05-19T06:24:34;1.13;;;0.70;;
15402;SDS011;7799;53.478;10.170;2023-05-19T06:27:01;2.07;;;0.90;;
15402;SDS011;7799;53.478;10.170;2023-05-19T06:29:28;3.27;;;1.13;;
15402;SDS011;7799;53.478;10.170;2023-05-19T06:31:59;1.20;;;1.00;;
15402;SDS011;7799;53.478;10.170;2023-05-19T06:34:27;2.33;;;0.97;;
15402;SDS011;7799;53.478;10.170;2023-05-19T06:36:53;0.73;;;0.63;;
15402;SDS011;7799;53.478;10.170;2023-05-19T06:39:21;0.87;;;0.70;;
15402;SDS011;7799;53.478;10.170;2023-05-19T06:41:49;0.73;;;0.73;;
15402;SDS011;7799;53.478;10.170;2023-05-19T06:44:35;1.10;;;0.80;;
15402;SDS011;7799;53.478;10.170;2023-05-19T06:47:02;0.60;;;0.60;;
15402;SDS011;7799;53.478;10.170;2023-05-19T06:49:31;1.20;;;0.67;;
15402;SDS011;7799;53.478;10.170;2023-05-19T06:51:57;1.10;;;0.70;;
15402;SDS011;7799;53.478;10.170;2023-05-19T06:54:24;1.43;;;0.80;;
15402;SDS011;7799;53.478;10.170;2023-05-19T06:56:51;1.87;;;0.83;;
15402;SDS011;7799;53.478;10.170;2023-05-19T06:59:18;1.00;;;0.73;;
15402;SDS011;7799;53.478;10.170;2023-05-19T07:01:46;1.13;;;0.70;;
15402;SDS011;7799;53.478;10.170;2023-05-19T07:04:13;1.83;;;1.00;;
15402;SDS011;7799;53.478;10.170;2023-05-19T07:06:41;1.07;;;0.73;;
15402;SDS011;7799;53.478;10.170;2023-05-19T07:09:08;3.10;;;1.10;;
15402;SDS011;7799;53.478;10.170;2023-05-19T07:11:36;1.27;;;0.77;;
15402;SDS011;7799;53.478;10.170;2023-05-19T07:14:03;1.60;;;0.80;;
15402;SDS011;7799;53.478;10.170;2023-05-19T07:16:30;1.83;;;0.97;;
15402;SDS011;7799;53.478;10.170;2023-05-19T07:18:57;1.40;;;0.73;;
15402;SDS011;7799;53.478;10.170;2023-05-19T07:21:24;1.57;;;1.17;;
15402;SDS011;7799;53.478;10.170;2023-05-19T07:23:52;2.60;;;1.00;;
15402;SDS011;7799;53.478;10.170;2023-05-19T07:26:19;1.77;;;0.90;;
15402;SDS011;7799;53.478;10.170;2023-05-19T07:28:46;2.13;;;1.00;;
15402;SDS011;7799;53.478;10.170;2023-05-19T07:31:13;1.50;;;0.80;;
15402;SDS011;7799;53.478;10.170;2023-05-19T07:33:40;1.23;;;0.70;;
15402;SDS011;7799;53.478;10.170;2023-05-19T07:36:06;2.27;;;0.90;;
15402;SDS011;7799;53.478;10.170;2023-05-19T07:38:33;1.63;;;1.10;;
15402;SDS011;7799;53.478;10.170;2023-05-19T07:41:01;1.87;;;1.00;;
15402;SDS011;7799;53.478;10.170;2023-05-19T07:43:28;1.57;;;1.17;;
15402;SDS011;7799;53.478;10.170;2023-05-19T07:45:55;2.63;;;0.80;;
15402;SDS011;7799;53.478;10.170;2023-05-19T07:48:22;1.00;;;0.90;;
15402;SDS011;7799;53.478;10.170;2023-05-19T07:50:50;3.10;;;1.30;;
15402;SDS011;7799;53.478;10.170;2023-05-19T07:53:17;3.67;;;1.70;;
15402;SDS011;7799;53.478;10.170;2023-05-19T07:55:44;2.67;;;1.23;;
15402;SDS011;7799;53.478;10.170;2023-05-19T07:58:12;2.40;;;1.20;;
15402;SDS011;7799;53.478;10.170;2023-05-19T08:00:39;2.00;;;1.10;;
15402;SDS011;7799;53.478;10.170;2023-05-19T08:03:07;1.27;;;0.90;;
15402;SDS011;7799;53.478;10.170;2023-05-19T08:05:33;3.27;;;1.10;;
15402;SDS011;7799;53.478;10.170;2023-05-19T08:08:00;1.50;;;0.93;;
15402;SDS011;7799;53.478;10.170;2023-05-19T08:10:27;2.43;;;0.73;;
15402;SDS011;7799;53.478;10.170;2023-05-19T08:12:53;1.57;;;0.90;;
15402;SDS011;7799;53.478;10.170;2023-05-19T08:15:22;2.50;;;1.10;;
15402;SDS011;7799;53.478;10.170;2023-05-19T08:17:49;2.47;;;0.97;;
15402;SDS011;7799;53.478;10.170;2023-05-19T08:20:16;1.03;;;0.80;;
15402;SDS011;7799;53.478;10.170;2023-05-19T08:22:42;2.60;;;0.90;;
15402;SDS011;7799;53.478;10.170;2023-05-19T08:25:09;1.20;;;0.77;;
15402;SDS011;7799;53.478;10.170;2023-05-19T08:27:36;1.10;;;0.80;;
15402;SDS011;7799;53.478;10.170;2023-05-19T08:30:03;1.60;;;0.90;;
15402;SDS011;7799;53.478;10.170;2023-05-19T08:32:31;3.53;;;1.30;;
15402;SDS011;7799;53.478;10.170;2023-05-19T08:34:58;2.63;;;1.20;;
15402;SDS011;7799;53.478;10.170;2023-05-19T08:37:24;1.00;;;0.80;;
15402;SDS011;7799;53.478;10.170;2023-05-19T08:39:51;0.90;;;0.70;;
15402;SDS011;7799;53.478;10.170;2023-05-19T08:42:17;1.20;;;0.83;;
15402;SDS011;7799;53.478;10.170;2023-05-19T08:44:44;2.73;;;1.20;;
15402;SDS011;7799;53.478;10.170;2023-05-19T08:47:11;2.93;;;1.70;;
15402;SDS011;7799;53.478;10.170;2023-05-19T08:49:42;2.07;;;1.03;;
15402;SDS011;7799;53.478;10.170;2023-05-19T08:52:13;1.67;;;0.90;;
15402;SDS011;7799;53.478;10.170;2023-05-19T08:54:45;1.40;;;0.70;;
15402;SDS011;7799;53.478;10.170;2023-05-19T08:57:16;2.17;;;0.83;;
15402;SDS011;7799;53.478;10.170;2023-05-19T08:59:42;0.97;;;0.70;;
15402;SDS011;7799;53.478;10.170;2023-05-19T09:02:09;0.90;;;0.70;;
15402;SDS011;7799;53.478;10.170;2023-05-19T09:04:37;0.83;;;0.57;;
15402;SDS011;7799;53.478;10.170;2023-05-19T09:07:05;1.50;;;0.70;;
15402;SDS011;7799;53.478;10.170;2023-05-19T09:09:33;0.90;;;0.60;;
15402;SDS011;7799;53.478;10.170;2023-05-19T09:12:00;1.17;;;0.77;;
15402;SDS011;7799;53.478;10.170;2023-05-19T09:14:26;2.37;;;1.10;;
15402;SDS011;7799;53.478;10.170;2023-05-19T09:16:53;1.17;;;0.77;;
15402;SDS011;7799;53.478;10.170;2023-05-19T09:19:20;2.53;;;0.83;;
15402;SDS011;7799;53.478;10.170;2023-05-19T09:21:49;1.47;;;0.80;;
15402;SDS011;7799;53.478;10.170;2023-05-19T09:24:25;2.20;;;0.90;;
15402;SDS011;7799;53.478;10.170;2023-05-19T09:26:52;1.20;;;0.67;;
15402;SDS011;7799;53.478;10.170;2023-05-19T09:29:20;2.00;;;0.80;;
15402;SDS011;7799;53.478;10.170;2023-05-19T09:31:47;1.87;;;0.90;;
15402;SDS011;7799;53.478;10.170;2023-05-19T09:34:15;1.30;;;0.90;;
15402;SDS011;7799;53.478;10.170;2023-05-19T09:36:42;1.80;;;0.90;;
15402;SDS011;7799;53.478;10.170;2023-05-19T09:39:11;2.00;;;0.87;;
15402;SDS011;7799;53.478;10.170;2023-05-19T09:41:40;1.27;;;0.70;;
15402;SDS011;7799;53.478;10.170;2023-05-19T09:44:11;1.93;;;1.00;;
15402;SDS011;7799;53.478;10.170;2023-05-19T09:46:45;1.97;;;1.00;;
15402;SDS011;7799;53.478;10.170;2023-05-19T09:49:14;0.70;;;0.57;;
15402;SDS011;7799;53.478;10.170;2023-05-19T09:51:44;1.33;;;0.90;;
15402;SDS011;7799;53.478;10.170;2023-05-19T09:54:13;1.73;;;0.87;;
15402;SDS011;7799;53.478;10.170;2023-05-19T09:56:41;0.80;;;0.70;;
15402;SDS011;7799;53.478;10.170;2023-05-19T09:59:08;1.00;;;0.60;;
15402;SDS011;7799;53.478;10.170;2023-05-19T10:01:35;1.33;;;0.70;;
15402;SDS011;7799;53.478;10.170;2023-05-19T10:04:04;0.53;;;0.53;;
15402;SDS011;7799;53.478;10.170;2023-05-19T10:06:31;1.53;;;0.70;;
15402;SDS011;7799;53.478;10.170;2023-05-19T10:08:58;1.43;;;0.90;;
15402;SDS011;7799;53.478;10.170;2023-05-19T10:11:25;1.13;;;0.60;;
15402;SDS011;7799;53.478;10.170;2023-05-19T10:13:54;1.93;;;0.93;;
15402;SDS011;7799;53.478;10.170;2023-05-19T10:16:20;1.53;;;0.70;;
15402;SDS011;7799;53.478;10.170;2023-05-19T10:18:48;1.03;;;0.67;;
15402;SDS011;7799;53.478;10.170;2023-05-19T10:21:16;1.50;;;0.80;;
15402;SDS011;7799;53.478;10.170;2023-05-19T10:23:43;0.90;;;0.60;;
15402;SDS011;7799;53.478;10.170;2023-05-19T10:26:09;0.80;;;0.70;;
15402;SDS011;7799;53.478;10.170;2023-05-19T10:28:36;1.20;;;0.70;;
15402;SDS011;7799;53.478;10.170;2023-05-19T10:31:06;1.13;;;0.70;;
15402;SDS011;7799;53.478;10.170;2023-05-19T10:33:38;1.20;;;0.60;;
15402;SDS011;7799;53.478;10.170;2023-05-19T10:36:14;2.80;;;0.80;;
15402;SDS011;7799;53.478;10.170;2023-05-19T10:38:55;0.90;;;0.70;;
15402;SDS011;7799;53.478;10.170;2023-05-19T10:41:27;1.47;;;0.67;;
15402;SDS011;7799;53.478;10.170;2023-05-19T10:43:58;1.07;;;0.60;;
15402;SDS011;7799;53.478;10.170;2023-05-19T10:46:35;0.43;;;0.43;;
15402;SDS011;7799;53.478;10.170;2023-05-19T10:49:02;0.77;;;0.60;;
15402;SDS011;7799;53.478;10.170;2023-05-19T10:51:29;1.00;;;0.60;;
15402;SDS011;7799;53.478;10.170;2023-05-19T10:53:56;2.07;;;1.00;;
15402;SDS011;7799;53.478;10.170;2023-05-19T10:56:27;2.60;;;1.23;;
15402;SDS011;7799;53.478;10.170;2023-05-19T10:58:56;1.60;;;0.80;;
15402;SDS011;7799;53.478;10.170;2023-05-19T11:01:28;1.23;;;0.60;;
15402;SDS011;7799;53.478;10.170;2023-05-19T11:04:03;0.73;;;0.63;;
15402;SDS011;7799;53.478;10.170;2023-05-19T11:06:31;2.92;;;0.80;;
15402;SDS011;7799;53.478;10.170;2023-05-19T11:09:01;0.63;;;0.60;;
15402;SDS011;7799;53.478;10.170;2023-05-19T11:11:43;1.50;;;0.50;;
15402;SDS011;7799;53.478;10.170;2023-05-19T11:14:11;0.63;;;0.40;;
15402;SDS011;7799;53.478;10.170;2023-05-19T11:16:38;0.60;;;0.50;;
15402;SDS011;7799;53.478;10.170;2023-05-19T11:19:07;3.53;;;0.88;;
15402;SDS011;7799;53.478;10.170;2023-05-19T11:21:40;1.55;;;0.60;;
15402;SDS011;7799;53.478;10.170;2023-05-19T11:24:08;0.63;;;0.60;;
15402;SDS011;7799;53.478;10.170;2023-05-19T11:26:41;1.85;;;0.50;;
15402;SDS011;7799;53.478;10.170;2023-05-19T11:29:08;0.93;;;0.52;;
15402;SDS011;7799;53.478;10.170;2023-05-19T11:31:35;0.70;;;0.55;;
15402;SDS011;7799;53.478;10.170;2023-05-19T11:34:03;0.98;;;0.63;;
15402;SDS011;7799;53.478;10.170;2023-05-19T11:36:33;1.55;;;0.70;;
15402;SDS011;7799;53.478;10.170;2023-05-19T11:39:01;0.82;;;0.60;;
15402;SDS011;7799;53.478;10.170;2023-05-19T11:41:28;1.08;;;0.93;;
15402;SDS011;7799;53.478;10.170;2023-05-19T11:43:55;0.88;;;0.55;;
15402;SDS011;7799;53.478;10.170;2023-05-19T11:46:21;1.30;;;0.70;;
15402;SDS011;7799;53.478;10.170;2023-05-19T11:48:48;1.58;;;0.80;;
15402;SDS011;7799;53.478;10.170;2023-05-19T11:51:15;0.95;;;0.65;;
15402;SDS011;7799;53.478;10.170;2023-05-19T11:53:43;0.50;;;0.50;;
15402;SDS011;7799;53.478;10.170;2023-05-19T11:56:10;1.10;;;0.50;;
15402;SDS011;7799;53.478;10.170;2023-05-19T11:58:37;1.65;;;0.63;;
15402;SDS011;7799;53.478;10.170;2023-05-19T12:01:04;1.20;;;0.82;;
15402;SDS011;7799;53.478;10.170;2023-05-19T12:03:31;1.60;;;1.10;;
15402;SDS011;7799;53.478;10.170;2023-05-19T12:05:57;0.93;;;0.80;;
15402;SDS011;7799;53.478;10.170;2023-05-19T12:08:25;1.40;;;1.10;;
15402;SDS011;7799;53.478;10.170;2023-05-19T12:10:53;1.65;;;1.10;;
15402;SDS011;7799;53.478;10.170;2023-05-19T12:13:20;1.23;;;0.88;;
15402;SDS011;7799;53.478;10.170;2023-05-19T12:15:49;1.40;;;0.80;;
15402;SDS011;7799;53.478;10.170;2023-05-19T12:18:16;0.77;;;0.70;;
15402;SDS011;7799;53.478;10.170;2023-05-19T12:20:42;1.45;;;0.57;;
15402;SDS011;7799;53.478;10.170;2023-05-19T12:23:09;1.00;;;0.80;;
15402;SDS011;7799;53.478;10.170;2023-05-19T12:25:36;2.25;;;0.93;;
15402;SDS011;7799;53.478;10.170;2023-05-19T12:28:04;1.20;;;0.93;;
15402;SDS011;7799;53.478;10.170;2023-05-19T12:30:31;0.90;;;0.80;;
15402;SDS011;7799;53.478;10.170;2023-05-19T12:33:01;0.95;;;0.60;;
15402;SDS011;7799;53.478;10.170;2023-05-19T12:35:28;1.08;;;0.80;;
15402;SDS011;7799;53.478;10.170;2023-05-19T12:38:00;1.17;;;0.70;;
15402;SDS011;7799;53.478;10.170;2023-05-19T12:40:28;1.10;;;0.77;;
15402;SDS011;7799;53.478;10.170;2023-05-19T12:42:55;1.02;;;0.80;;
15402;SDS011;7799;53.478;10.170;2023-05-19T12:45:24;1.55;;;0.80;;
15402;SDS011;7799;53.478;10.170;2023-05-19T12:47:52;1.58;;;0.90;;
15402;SDS011;7799;53.478;10.170;2023-05-19T12:50:19;1.10;;;0.60;;
15402;SDS011;7799;53.478;10.170;2023-05-19T12:52:46;1.23;;;0.70;;
15402;SDS011;7799;53.478;10.170;2023-05-19T12:55:15;1.73;;;0.88;;
15402;SDS011;7799;53.478;10.170;2023-05-19T12:57:43;1.27;;;0.80;;
15402;SDS011;7799;53.478;10.170;2023-05-19T13:00:16;0.68;;;0.57;;
15402;SDS011;7799;53.478;10.170;2023-05-19T13:02:56;1.48;;;0.85;;
15402;SDS011;7799;53.478;10.170;2023-05-19T13:05:24;1.38;;;1.05;;
15402;SDS011;7799;53.478;10.170;2023-05-19T13:07:54;0.93;;;0.52;;
15402;SDS011;7799;53.478;10.170;2023-05-19T13:10:21;1.08;;;0.80;;
15402;SDS011;7799;53.478;10.170;2023-05-19T13:12:52;0.70;;;0.70;;
15402;SDS011;7799;53.478;10.170;2023-05-19T13:15:20;1.60;;;0.90;;
15402;SDS011;7799;53.478;10.170;2023-05-19T13:17:47;1.27;;;1.03;;
15402;SDS011;7799;53.478;10.170;2023-05-19T13:20:15;0.80;;;0.67;;
15402;SDS011;7799;53.478;10.170;2023-05-19T13:22:42;1.60;;;0.80;;
15402;SDS011;7799;53.478;10.170;2023-05-19T13:25:08;1.43;;;0.70;;
15402;SDS011;7799;53.478;10.170;2023-05-19T13:27:35;1.38;;;1.00;;
15402;SDS011;7799;53.478;10.170;2023-05-19T13:30:02;1.13;;;0.80;;
15402;SDS011;7799;53.478;10.170;2023-05-19T13:32:29;0.80;;;0.70;;
15402;SDS011;7799;53.478;10.170;2023-05-19T13:34:56;1.10;;;0.70;;
15402;SDS011;7799;53.478;10.170;2023-05-19T13:37:25;1.93;;;0.90;;
15402;SDS011;7799;53.478;10.170;2023-05-19T13:39:52;0.90;;;0.67;;
15402;SDS011;7799;53.478;10.170;2023-05-19T13:42:18;3.23;;;0.90;;
15402;SDS011;7799;53.478;10.170;2023-05-19T13:44:45;1.40;;;0.70;;
15402;SDS011;7799;53.478;10.170;2023-05-19T13:47:12;1.30;;;0.80;;
15402;SDS011;7799;53.478;10.170;2023-05-19T13:49:38;1.70;;;1.00;;
15402;SDS011;7799;53.478;10.170;2023-05-19T13:52:06;1.43;;;0.87;;
15402;SDS011;7799;53.478;10.170;2023-05-19T13:54:34;2.03;;;0.90;;
15402;SDS011;7799;53.478;10.170;2023-05-19T13:57:01;1.27;;;0.80;;
15402;SDS011;7799;53.478;10.170;2023-05-19T13:59:27;1.60;;;0.80;;
15402;SDS011;7799;53.478;10.170;2023-05-19T14:01:54;1.63;;;0.83;;
15402;SDS011;7799;53.478;10.170;2023-05-19T14:04:21;1.60;;;0.90;;
15402;SDS011;7799;53.478;10.170;2023-05-19T14:06:49;1.00;;;0.90;;
15402;SDS011;7799;53.478;10.170;2023-05-19T14:09:15;0.67;;;0.60;;
15402;SDS011;7799;53.478;10.170;2023-05-19T14:11:43;1.47;;;0.90;;
15402;SDS011;7799;53.478;10.170;2023-05-19T14:14:10;1.23;;;0.70;;
15402;SDS011;7799;53.478;10.170;2023-05-19T14:16:37;1.13;;;0.80;;
15402;SDS011;7799;53.478;10.170;2023-05-19T14:19:07;1.47;;;0.83;;
15402;SDS011;7799;53.478;10.170;2023-05-19T14:21:33;1.17;;;1.07;;
15402;SDS011;7799;53.478;10.170;2023-05-19T14:24:00;2.50;;;1.10;;
15402;SDS011;7799;53.478;10.170;2023-05-19T14:26:27;3.00;;;1.20;;
15402;SDS011;7799;53.478;10.170;2023-05-19T14:28:55;1.13;;;0.70;;
15402;SDS011;7799;53.478;10.170;2023-05-19T14:31:22;0.60;;;0.60;;
15402;SDS011;7799;53.478;10.170;2023-05-19T14:33:50;1.80;;;0.90;;
15402;SDS011;7799;53.478;10.170;2023-05-19T14:36:17;1.77;;;0.80;;
15402;SDS011;7799;53.478;10.170;2023-05-19T14:38:43;1.33;;;1.03;;
15402;SDS011;7799;53.478;10.170;2023-05-19T14:41:10;1.97;;;1.00;;
15402;SDS011;7799;53.478;10.170;2023-05-19T14:43:37;1.67;;;0.90;;
15402;SDS011;7799;53.478;10.170;2023-05-19T14:46:07;1.87;;;0.90;;
15402;SDS011;7799;53.478;10.170;2023-05-19T14:48:34;1.73;;;0.73;;
15402;SDS011;7799;53.478;10.170;2023-05-19T14:51:00;1.17;;;0.73;;
15402;SDS011;7799;53.478;10.170;2023-05-19T14:53:27;3.00;;;1.10;;
15402;SDS011;7799;53.478;10.170;2023-05-19T14:55:54;3.43;;;1.47;;